WMKAWMKL

Guest
Details From WMKA - Alor Setar Sultan Abdul Halim
To WMKL - Langkawi Intl
Flight Number -
Tags generated
Created
Modified
Stats Distance 41 nm / 76 km
Max Altitude 0 ft / 0 m
Waypoints 3
Social Downloads 0
Likes 0
Share VATSIM

Download

Looking for another format? Having issues loading an existing format? Contact us
Advertisement - Login to hide

Notes

Basic altitude profile: - Ascent Rate: 1800ft/min - Ascent Speed: 180kts - Cruise Altitude: 6000ft - Cruise Speed: 250kts - Descent Rate: 1500ft/min - Descent Speed: 180kts Options: - Use NATs: yes - Use PACOTS: yes - Use low airways: yes - Use high airways: no

Route

WMKA VAS WMKL

ID Type Via Altitude Latitude Longitude Leg Dist Tot Dist Heading (true) Name
O WMKA APT - 0 ft / 0 m 6.18967˚ 100.39818˚ - 0 nm - Alor Setar Sultan Abdul Halim
VAS VOR - 0 ft / 0 m 6.18567˚ 100.39700˚ 0 nm 0 nm 196° / 196° ALOR STAR VOR-DME
O WMKL APT - 0 ft / 0 m 6.32973˚ 99.72866˚ 40 nm 41 nm 282° / 282° Langkawi Intl

Altitude Profile

Advertisement - Login to hide

WMKA

Details ICAO WMKA (AOR)
Name Alor Setar Sultan Abdul Halim
Region Malaysia (Peninsular Malaysia)
Timezone Asia/Kuala_Lumpur (UTC+8.0)
Stats Elevation 15 ft / 5 m (AMSL)
Location 6.189666° 100.398184°
Runways 1
Magnetic Variation 0.229° W

METAR

WMKA 150100Z VRB03KT 6000 FEW030 BKN300 25/23 Q1012

Decode

TAF

Not found

Departure Runways

ID Width Length Bearing (true) Bearing (mag) Surface Threshold Offset Overrun Length
04 151 ft / 46 m 9,029 ft / 2,752 m 42.31° 42.54° Asphalt 0 ft / 0 m 60 ft / 18 m
22 151 ft / 46 m 9,029 ft / 2,752 m 222.32° 222.55° Asphalt 0 ft / 0 m 0 ft / 0 m

WMKL

Details ICAO WMKL (LGK)
Name Langkawi Intl
Region Malaysia (Peninsular Malaysia)
Timezone Asia/Kuala_Lumpur (UTC+8.0)
Stats Elevation 29 ft / 9 m (AMSL)
Location 6.329726° 99.728665°
Runways 1
Magnetic Variation 0.282° W

METAR

WMKL 150100Z 03003KT 350V070 9999 FEW020 BKN270 26/23 Q1012

Decode

TAF

Not found

Destination Runways

ID Width Length Bearing (true) Bearing (mag) Surface Threshold Offset Overrun Length
03 148 ft / 45 m 12,543 ft / 3,823 m 34.19° 34.47° Asphalt 2,000 ft / 610 m 193 ft / 59 m
21 148 ft / 45 m 12,543 ft / 3,823 m 214.20° 214.48° Asphalt 0 ft / 0 m 175 ft / 53 m

Approach Navaids

Runway Type Ident Frequency Range Bearing (true) Bearing (mag) Slope Elevation
03 Localiser ILK 110.70 MHz 18 nm / 33 km 35.68° 35.96° - 29 ft / 9 m (AMSL)
03 Glidescope ILK 110.70 MHz 10 nm / 19 km 34.19° 34.48° 3.00° 29 ft / 9 m (AMSL)
03 DME ILK 110.70 MHz 18 nm / 33 km - - - 29 ft / 9 m (AMSL)

Popular Alternatives